sensor_id;sensor_type;location;lat;lon;timestamp;P1;durP1;ratioP1;P2;durP2;ratioP2
69678;SDS011;56915;52.046;4.854;2022-12-24T00:02:08;16.45;;;2.28;;
69678;SDS011;56915;52.046;4.854;2022-12-24T00:04:35;18.30;;;2.73;;
69678;SDS011;56915;52.046;4.854;2022-12-24T00:07:02;14.10;;;1.75;;
69678;SDS011;56915;52.046;4.854;2022-12-24T00:09:29;18.98;;;2.63;;
69678;SDS011;56915;52.046;4.854;2022-12-24T00:11:56;23.23;;;2.72;;
69678;SDS011;56915;52.046;4.854;2022-12-24T00:14:22;20.23;;;2.88;;
69678;SDS011;56915;52.046;4.854;2022-12-24T00:16:50;18.37;;;2.63;;
69678;SDS011;56915;52.046;4.854;2022-12-24T00:19:17;12.27;;;1.90;;
69678;SDS011;56915;52.046;4.854;2022-12-24T00:21:44;21.17;;;2.63;;
69678;SDS011;56915;52.046;4.854;2022-12-24T00:24:10;19.40;;;2.55;;
69678;SDS011;56915;52.046;4.854;2022-12-24T00:26:37;18.10;;;1.73;;
69678;SDS011;56915;52.046;4.854;2022-12-24T00:29:04;18.53;;;2.13;;
69678;SDS011;56915;52.046;4.854;2022-12-24T00:31:31;20.30;;;2.20;;
69678;SDS011;56915;52.046;4.854;2022-12-24T00:33:58;12.57;;;2.05;;
69678;SDS011;56915;52.046;4.854;2022-12-24T00:36:24;19.17;;;2.38;;
69678;SDS011;56915;52.046;4.854;2022-12-24T00:38:51;16.15;;;2.50;;
69678;SDS011;56915;52.046;4.854;2022-12-24T00:41:18;18.50;;;2.03;;
69678;SDS011;56915;52.046;4.854;2022-12-24T00:43:52;16.15;;;1.92;;
69678;SDS011;56915;52.046;4.854;2022-12-24T00:46:24;19.38;;;2.28;;
69678;SDS011;56915;52.046;4.854;2022-12-24T00:48:52;21.42;;;2.67;;
69678;SDS011;56915;52.046;4.854;2022-12-24T00:51:19;17.17;;;2.40;;
69678;SDS011;56915;52.046;4.854;2022-12-24T00:53:47;16.13;;;2.90;;
69678;SDS011;56915;52.046;4.854;2022-12-24T00:56:14;15.68;;;1.88;;
69678;SDS011;56915;52.046;4.854;2022-12-24T00:58:41;16.65;;;1.60;;
69678;SDS011;56915;52.046;4.854;2022-12-24T01:01:08;13.77;;;2.53;;
69678;SDS011;56915;52.046;4.854;2022-12-24T01:03:35;20.55;;;2.17;;
69678;SDS011;56915;52.046;4.854;2022-12-24T01:06:03;23.53;;;2.97;;
69678;SDS011;56915;52.046;4.854;2022-12-24T01:08:34;15.45;;;2.38;;
69678;SDS011;56915;52.046;4.854;2022-12-24T01:11:02;16.83;;;2.30;;
69678;SDS011;56915;52.046;4.854;2022-12-24T01:13:29;13.13;;;2.22;;
69678;SDS011;56915;52.046;4.854;2022-12-24T01:15:57;14.60;;;1.90;;
69678;SDS011;56915;52.046;4.854;2022-12-24T01:18:24;13.20;;;1.70;;
69678;SDS011;56915;52.046;4.854;2022-12-24T01:20:58;13.40;;;2.10;;
69678;SDS011;56915;52.046;4.854;2022-12-24T01:23:26;11.30;;;1.63;;
69678;SDS011;56915;52.046;4.854;2022-12-24T01:25:54;16.77;;;2.00;;
69678;SDS011;56915;52.046;4.854;2022-12-24T01:28:24;18.45;;;1.98;;
69678;SDS011;56915;52.046;4.854;2022-12-24T01:30:51;13.07;;;1.40;;
69678;SDS011;56915;52.046;4.854;2022-12-24T01:33:18;20.35;;;2.22;;
69678;SDS011;56915;52.046;4.854;2022-12-24T01:35:45;19.42;;;2.33;;
69678;SDS011;56915;52.046;4.854;2022-12-24T01:38:12;17.52;;;2.10;;
69678;SDS011;56915;52.046;4.854;2022-12-24T01:40:39;16.10;;;2.10;;
69678;SDS011;56915;52.046;4.854;2022-12-24T01:43:26;18.53;;;1.90;;
69678;SDS011;56915;52.046;4.854;2022-12-24T01:46:05;18.00;;;1.67;;
69678;SDS011;56915;52.046;4.854;2022-12-24T01:48:39;15.25;;;1.63;;
69678;SDS011;56915;52.046;4.854;2022-12-24T01:53:46;31.98;;;3.42;;
69678;SDS011;56915;52.046;4.854;2022-12-24T01:56:17;16.50;;;1.67;;
69678;SDS011;56915;52.046;4.854;2022-12-24T01:58:47;23.08;;;2.08;;
69678;SDS011;56915;52.046;4.854;2022-12-24T02:01:20;23.17;;;2.60;;
69678;SDS011;56915;52.046;4.854;2022-12-24T02:03:47;17.70;;;2.35;;
69678;SDS011;56915;52.046;4.854;2022-12-24T02:06:14;24.77;;;2.25;;
69678;SDS011;56915;52.046;4.854;2022-12-24T02:08:43;19.10;;;1.87;;
69678;SDS011;56915;52.046;4.854;2022-12-24T02:11:15;20.88;;;2.58;;
69678;SDS011;56915;52.046;4.854;2022-12-24T02:13:45;12.60;;;1.73;;
69678;SDS011;56915;52.046;4.854;2022-12-24T02:16:37;15.13;;;1.70;;
69678;SDS011;56915;52.046;4.854;2022-12-24T02:30:58;18.85;;;2.08;;
69678;SDS011;56915;52.046;4.854;2022-12-24T02:33:53;26.45;;;2.50;;
69678;SDS011;56915;52.046;4.854;2022-12-24T02:36:30;22.53;;;2.50;;
69678;SDS011;56915;52.046;4.854;2022-12-24T02:39:10;22.23;;;1.92;;
69678;SDS011;56915;52.046;4.854;2022-12-24T02:41:47;27.45;;;2.90;;
69678;SDS011;56915;52.046;4.854;2022-12-24T02:44:54;17.25;;;2.15;;
69678;SDS011;56915;52.046;4.854;2022-12-24T02:47:26;20.17;;;2.22;;
69678;SDS011;56915;52.046;4.854;2022-12-24T02:49:59;22.63;;;2.20;;
69678;SDS011;56915;52.046;4.854;2022-12-24T02:54:55;19.05;;;1.98;;
69678;SDS011;56915;52.046;4.854;2022-12-24T03:00:33;25.15;;;2.20;;
69678;SDS011;56915;52.046;4.854;2022-12-24T03:03:32;26.40;;;2.47;;
69678;SDS011;56915;52.046;4.854;2022-12-24T03:06:37;26.77;;;2.45;;
69678;SDS011;56915;52.046;4.854;2022-12-24T03:09:17;26.45;;;2.55;;
69678;SDS011;56915;52.046;4.854;2022-12-24T03:11:59;22.92;;;2.35;;
69678;SDS011;56915;52.046;4.854;2022-12-24T03:14:49;29.88;;;2.80;;
69678;SDS011;56915;52.046;4.854;2022-12-24T03:17:17;28.90;;;2.57;;
69678;SDS011;56915;52.046;4.854;2022-12-24T03:19:45;36.25;;;2.67;;
69678;SDS011;56915;52.046;4.854;2022-12-24T03:22:13;26.42;;;2.28;;
69678;SDS011;56915;52.046;4.854;2022-12-24T03:24:42;31.10;;;2.83;;
69678;SDS011;56915;52.046;4.854;2022-12-24T03:27:09;43.42;;;3.30;;
69678;SDS011;56915;52.046;4.854;2022-12-24T03:29:39;38.57;;;3.20;;
69678;SDS011;56915;52.046;4.854;2022-12-24T03:32:06;36.70;;;3.17;;
69678;SDS011;56915;52.046;4.854;2022-12-24T03:34:33;24.02;;;2.30;;
69678;SDS011;56915;52.046;4.854;2022-12-24T03:37:00;31.45;;;2.95;;
69678;SDS011;56915;52.046;4.854;2022-12-24T03:39:26;35.47;;;2.80;;
69678;SDS011;56915;52.046;4.854;2022-12-24T03:41:53;35.77;;;3.37;;
69678;SDS011;56915;52.046;4.854;2022-12-24T03:44:20;25.38;;;3.05;;
69678;SDS011;56915;52.046;4.854;2022-12-24T03:46:47;32.65;;;3.30;;
69678;SDS011;56915;52.046;4.854;2022-12-24T03:49:14;35.28;;;2.67;;
69678;SDS011;56915;52.046;4.854;2022-12-24T03:51:41;26.67;;;2.80;;
69678;SDS011;56915;52.046;4.854;2022-12-24T03:54:08;24.43;;;2.60;;
69678;SDS011;56915;52.046;4.854;2022-12-24T03:56:34;30.30;;;2.92;;
69678;SDS011;56915;52.046;4.854;2022-12-24T03:59:01;35.20;;;3.25;;
69678;SDS011;56915;52.046;4.854;2022-12-24T04:01:28;27.75;;;3.00;;
69678;SDS011;56915;52.046;4.854;2022-12-24T04:03:55;30.17;;;2.38;;
69678;SDS011;56915;52.046;4.854;2022-12-24T04:06:22;32.93;;;3.70;;
69678;SDS011;56915;52.046;4.854;2022-12-24T04:08:49;23.55;;;2.60;;
69678;SDS011;56915;52.046;4.854;2022-12-24T04:11:16;32.17;;;3.05;;
69678;SDS011;56915;52.046;4.854;2022-12-24T04:13:43;28.60;;;3.00;;
69678;SDS011;56915;52.046;4.854;2022-12-24T04:16:12;38.22;;;2.67;;
69678;SDS011;56915;52.046;4.854;2022-12-24T04:18:40;33.00;;;3.10;;
69678;SDS011;56915;52.046;4.854;2022-12-24T04:21:07;26.33;;;3.03;;
69678;SDS011;56915;52.046;4.854;2022-12-24T04:23:35;27.52;;;3.17;;
69678;SDS011;56915;52.046;4.854;2022-12-24T04:26:04;28.27;;;2.72;;
69678;SDS011;56915;52.046;4.854;2022-12-24T04:28:33;27.65;;;2.60;;
69678;SDS011;56915;52.046;4.854;2022-12-24T04:31:02;34.07;;;3.07;;
69678;SDS011;56915;52.046;4.854;2022-12-24T04:33:31;28.13;;;2.60;;
69678;SDS011;56915;52.046;4.854;2022-12-24T04:35:59;26.65;;;2.75;;
69678;SDS011;56915;52.046;4.854;2022-12-24T04:38:27;24.33;;;2.28;;
69678;SDS011;56915;52.046;4.854;2022-12-24T04:40:59;32.50;;;2.60;;
69678;SDS011;56915;52.046;4.854;2022-12-24T04:43:30;19.07;;;2.30;;
69678;SDS011;56915;52.046;4.854;2022-12-24T04:46:04;23.08;;;2.20;;
69678;SDS011;56915;52.046;4.854;2022-12-24T04:48:46;20.30;;;2.75;;
69678;SDS011;56915;52.046;4.854;2022-12-24T04:51:15;22.33;;;2.47;;
69678;SDS011;56915;52.046;4.854;2022-12-24T04:53:43;24.88;;;2.35;;
69678;SDS011;56915;52.046;4.854;2022-12-24T04:56:14;29.90;;;2.50;;
69678;SDS011;56915;52.046;4.854;2022-12-24T04:58:43;18.58;;;2.17;;
69678;SDS011;56915;52.046;4.854;2022-12-24T05:01:14;26.83;;;2.80;;
69678;SDS011;56915;52.046;4.854;2022-12-24T05:03:44;23.42;;;2.30;;
69678;SDS011;56915;52.046;4.854;2022-12-24T05:06:12;19.48;;;2.10;;
69678;SDS011;56915;52.046;4.854;2022-12-24T05:08:41;31.77;;;2.20;;
69678;SDS011;56915;52.046;4.854;2022-12-24T05:11:08;24.65;;;2.42;;
69678;SDS011;56915;52.046;4.854;2022-12-24T05:13:39;25.55;;;2.22;;
69678;SDS011;56915;52.046;4.854;2022-12-24T05:16:13;25.00;;;2.53;;
69678;SDS011;56915;52.046;4.854;2022-12-24T05:18:41;25.15;;;2.33;;
69678;SDS011;56915;52.046;4.854;2022-12-24T05:21:08;25.90;;;2.50;;
69678;SDS011;56915;52.046;4.854;2022-12-24T05:23:40;23.38;;;2.30;;
69678;SDS011;56915;52.046;4.854;2022-12-24T05:28:55;28.17;;;2.72;;
69678;SDS011;56915;52.046;4.854;2022-12-24T05:31:23;30.10;;;2.85;;
69678;SDS011;56915;52.046;4.854;2022-12-24T05:33:51;23.87;;;2.37;;
69678;SDS011;56915;52.046;4.854;2022-12-24T05:36:20;29.67;;;2.40;;
69678;SDS011;56915;52.046;4.854;2022-12-24T05:38:48;30.83;;;2.60;;
69678;SDS011;56915;52.046;4.854;2022-12-24T05:41:15;31.80;;;2.90;;
69678;SDS011;56915;52.046;4.854;2022-12-24T05:43:42;31.88;;;3.30;;
69678;SDS011;56915;52.046;4.854;2022-12-24T05:46:09;28.47;;;2.30;;
69678;SDS011;56915;52.046;4.854;2022-12-24T05:48:40;32.33;;;3.33;;
69678;SDS011;56915;52.046;4.854;2022-12-24T05:51:08;30.80;;;3.00;;
69678;SDS011;56915;52.046;4.854;2022-12-24T05:53:36;29.13;;;3.03;;
69678;SDS011;56915;52.046;4.854;2022-12-24T05:56:04;27.38;;;2.30;;
69678;SDS011;56915;52.046;4.854;2022-12-24T05:58:32;32.83;;;3.23;;
69678;SDS011;56915;52.046;4.854;2022-12-24T06:01:00;33.90;;;3.17;;
69678;SDS011;56915;52.046;4.854;2022-12-24T06:03:29;33.30;;;3.40;;
69678;SDS011;56915;52.046;4.854;2022-12-24T06:08:31;32.17;;;3.60;;
69678;SDS011;56915;52.046;4.854;2022-12-24T06:11:00;29.83;;;2.97;;
69678;SDS011;56915;52.046;4.854;2022-12-24T06:13:28;30.70;;;3.15;;
69678;SDS011;56915;52.046;4.854;2022-12-24T06:15:56;32.63;;;3.42;;
69678;SDS011;56915;52.046;4.854;2022-12-24T06:18:24;26.98;;;3.15;;
69678;SDS011;56915;52.046;4.854;2022-12-24T06:20:51;36.63;;;3.40;;
69678;SDS011;56915;52.046;4.854;2022-12-24T06:23:19;29.67;;;2.90;;
69678;SDS011;56915;52.046;4.854;2022-12-24T06:25:47;34.92;;;3.33;;
69678;SDS011;56915;52.046;4.854;2022-12-24T06:28:14;45.40;;;3.80;;
69678;SDS011;56915;52.046;4.854;2022-12-24T06:30:46;38.78;;;3.47;;
69678;SDS011;56915;52.046;4.854;2022-12-24T06:33:14;42.40;;;3.40;;
69678;SDS011;56915;52.046;4.854;2022-12-24T06:35:43;30.27;;;3.37;;
69678;SDS011;56915;52.046;4.854;2022-12-24T06:38:11;34.38;;;3.50;;
69678;SDS011;56915;52.046;4.854;2022-12-24T06:40:40;40.80;;;3.58;;
69678;SDS011;56915;52.046;4.854;2022-12-24T06:43:08;37.47;;;3.53;;
69678;SDS011;56915;52.046;4.854;2022-12-24T06:45:35;38.72;;;3.70;;
69678;SDS011;56915;52.046;4.854;2022-12-24T06:48:02;37.53;;;3.30;;
69678;SDS011;56915;52.046;4.854;2022-12-24T06:50:29;33.30;;;3.13;;
69678;SDS011;56915;52.046;4.854;2022-12-24T06:52:57;37.55;;;3.58;;
69678;SDS011;56915;52.046;4.854;2022-12-24T06:55:24;31.90;;;3.05;;
69678;SDS011;56915;52.046;4.854;2022-12-24T06:57:51;43.92;;;3.88;;
69678;SDS011;56915;52.046;4.854;2022-12-24T07:00:18;37.87;;;3.20;;
69678;SDS011;56915;52.046;4.854;2022-12-24T07:02:46;34.92;;;3.17;;
69678;SDS011;56915;52.046;4.854;2022-12-24T07:05:13;41.47;;;4.00;;
69678;SDS011;56915;52.046;4.854;2022-12-24T07:07:42;35.53;;;3.03;;
69678;SDS011;56915;52.046;4.854;2022-12-24T07:10:10;36.05;;;3.20;;
69678;SDS011;56915;52.046;4.854;2022-12-24T07:12:40;30.70;;;2.60;;
69678;SDS011;56915;52.046;4.854;2022-12-24T07:15:07;36.53;;;3.70;;
69678;SDS011;56915;52.046;4.854;2022-12-24T07:17:37;36.88;;;3.00;;
69678;SDS011;56915;52.046;4.854;2022-12-24T07:20:04;32.42;;;2.95;;
69678;SDS011;56915;52.046;4.854;2022-12-24T07:22:32;36.92;;;3.20;;
69678;SDS011;56915;52.046;4.854;2022-12-24T07:24:59;32.13;;;2.73;;
69678;SDS011;56915;52.046;4.854;2022-12-24T07:27:26;32.17;;;3.13;;
69678;SDS011;56915;52.046;4.854;2022-12-24T07:29:53;39.53;;;3.20;;
69678;SDS011;56915;52.046;4.854;2022-12-24T07:32:19;30.55;;;3.13;;
69678;SDS011;56915;52.046;4.854;2022-12-24T07:34:46;28.65;;;3.03;;
69678;SDS011;56915;52.046;4.854;2022-12-24T07:37:13;38.37;;;3.40;;
69678;SDS011;56915;52.046;4.854;2022-12-24T07:39:40;39.67;;;3.10;;
69678;SDS011;56915;52.046;4.854;2022-12-24T07:42:06;32.17;;;3.63;;
69678;SDS011;56915;52.046;4.854;2022-12-24T07:44:33;37.33;;;3.70;;
69678;SDS011;56915;52.046;4.854;2022-12-24T07:47:00;35.00;;;4.80;;
69678;SDS011;56915;52.046;4.854;2022-12-24T07:49:27;38.80;;;3.77;;
69678;SDS011;56915;52.046;4.854;2022-12-24T07:51:54;38.50;;;3.83;;
69678;SDS011;56915;52.046;4.854;2022-12-24T07:54:21;32.45;;;3.55;;
69678;SDS011;56915;52.046;4.854;2022-12-24T07:56:48;36.15;;;3.85;;
69678;SDS011;56915;52.046;4.854;2022-12-24T07:59:15;44.63;;;5.15;;
69678;SDS011;56915;52.046;4.854;2022-12-24T08:01:46;26.30;;;4.03;;
69678;SDS011;56915;52.046;4.854;2022-12-24T08:04:13;35.15;;;3.70;;
69678;SDS011;56915;52.046;4.854;2022-12-24T08:06:40;35.55;;;3.15;;
69678;SDS011;56915;52.046;4.854;2022-12-24T08:09:07;39.30;;;4.53;;
69678;SDS011;56915;52.046;4.854;2022-12-24T08:11:34;37.97;;;3.80;;
69678;SDS011;56915;52.046;4.854;2022-12-24T08:14:00;30.97;;;2.73;;
69678;SDS011;56915;52.046;4.854;2022-12-24T08:16:27;35.33;;;4.13;;
69678;SDS011;56915;52.046;4.854;2022-12-24T08:18:54;27.75;;;3.17;;
69678;SDS011;56915;52.046;4.854;2022-12-24T08:21:21;35.72;;;3.75;;
69678;SDS011;56915;52.046;4.854;2022-12-24T08:23:48;35.67;;;3.58;;
69678;SDS011;56915;52.046;4.854;2022-12-24T08:26:15;40.27;;;4.03;;
69678;SDS011;56915;52.046;4.854;2022-12-24T08:28:43;34.70;;;3.67;;
69678;SDS011;56915;52.046;4.854;2022-12-24T08:31:10;33.33;;;4.32;;
69678;SDS011;56915;52.046;4.854;2022-12-24T08:33:37;32.95;;;4.25;;
69678;SDS011;56915;52.046;4.854;2022-12-24T08:36:04;33.58;;;4.07;;
69678;SDS011;56915;52.046;4.854;2022-12-24T08:38:31;36.93;;;3.60;;
69678;SDS011;56915;52.046;4.854;2022-12-24T08:40:58;33.40;;;3.33;;
69678;SDS011;56915;52.046;4.854;2022-12-24T08:43:24;38.22;;;3.80;;
69678;SDS011;56915;52.046;4.854;2022-12-24T08:45:52;26.42;;;3.65;;
69678;SDS011;56915;52.046;4.854;2022-12-24T08:48:19;34.90;;;3.20;;
69678;SDS011;56915;52.046;4.854;2022-12-24T08:50:46;35.03;;;2.97;;
69678;SDS011;56915;52.046;4.854;2022-12-24T08:53:13;30.95;;;3.28;;
69678;SDS011;56915;52.046;4.854;2022-12-24T08:55:40;35.63;;;3.38;;
69678;SDS011;56915;52.046;4.854;2022-12-24T08:58:07;28.13;;;2.83;;
69678;SDS011;56915;52.046;4.854;2022-12-24T09:00:34;29.73;;;2.97;;
69678;SDS011;56915;52.046;4.854;2022-12-24T09:03:02;35.33;;;3.03;;
69678;SDS011;56915;52.046;4.854;2022-12-24T09:05:29;21.08;;;3.35;;
69678;SDS011;56915;52.046;4.854;2022-12-24T09:07:56;28.83;;;3.30;;
69678;SDS011;56915;52.046;4.854;2022-12-24T09:10:23;27.75;;;3.80;;
69678;SDS011;56915;52.046;4.854;2022-12-24T09:12:51;30.27;;;3.55;;
69678;SDS011;56915;52.046;4.854;2022-12-24T09:15:17;30.47;;;3.17;;
69678;SDS011;56915;52.046;4.854;2022-12-24T09:17:44;23.15;;;2.95;;
69678;SDS011;56915;52.046;4.854;2022-12-24T09:20:11;25.58;;;3.30;;
69678;SDS011;56915;52.046;4.854;2022-12-24T09:22:38;28.23;;;3.70;;
69678;SDS011;56915;52.046;4.854;2022-12-24T09:25:05;30.83;;;3.47;;
69678;SDS011;56915;52.046;4.854;2022-12-24T09:27:33;26.87;;;3.00;;
69678;SDS011;56915;52.046;4.854;2022-12-24T09:30:00;28.10;;;3.90;;
69678;SDS011;56915;52.046;4.854;2022-12-24T09:32:27;23.65;;;2.75;;
69678;SDS011;56915;52.046;4.854;2022-12-24T09:34:54;28.05;;;3.03;;
69678;SDS011;56915;52.046;4.854;2022-12-24T09:37:21;30.15;;;2.72;;
69678;SDS011;56915;52.046;4.854;2022-12-24T09:39:48;20.23;;;2.57;;
69678;SDS011;56915;52.046;4.854;2022-12-24T09:52:55;34.37;;;3.17;;
69678;SDS011;56915;52.046;4.854;2022-12-24T09:55:31;22.13;;;2.90;;
69678;SDS011;56915;52.046;4.854;2022-12-24T09:58:03;25.92;;;2.80;;
69678;SDS011;56915;52.046;4.854;2022-12-24T10:00:34;26.55;;;2.60;;
69678;SDS011;56915;52.046;4.854;2022-12-24T10:03:13;21.23;;;2.55;;
69678;SDS011;56915;52.046;4.854;2022-12-24T10:06:29;24.43;;;3.33;;
69678;SDS011;56915;52.046;4.854;2022-12-24T10:08:30;23.70;;;2.85;;
69678;SDS011;56915;52.046;4.854;2022-12-24T10:11:10;26.50;;;2.50;;
69678;SDS011;56915;52.046;4.854;2022-12-24T10:19:13;26.40;;;2.60;;
69678;SDS011;56915;52.046;4.854;2022-12-24T10:24:38;19.23;;;2.40;;
69678;SDS011;56915;52.046;4.854;2022-12-24T10:27:31;23.15;;;2.78;;
69678;SDS011;56915;52.046;4.854;2022-12-24T10:30:11;21.77;;;2.80;;
69678;SDS011;56915;52.046;4.854;2022-12-24T10:32:46;16.30;;;2.27;;
69678;SDS011;56915;52.046;4.854;2022-12-24T10:37:50;17.98;;;2.13;;
69678;SDS011;56915;52.046;4.854;2022-12-24T10:42:53;23.08;;;2.45;;
69678;SDS011;56915;52.046;4.854;2022-12-24T10:45:20;21.73;;;2.47;;
69678;SDS011;56915;52.046;4.854;2022-12-24T10:47:52;20.42;;;2.25;;
69678;SDS011;56915;52.046;4.854;2022-12-24T10:50:29;17.10;;;1.83;;
69678;SDS011;56915;52.046;4.854;2022-12-24T10:53:12;18.30;;;2.08;;
69678;SDS011;56915;52.046;4.854;2022-12-24T10:55:43;15.88;;;1.83;;
69678;SDS011;56915;52.046;4.854;2022-12-24T10:58:14;14.23;;;1.90;;
69678;SDS011;56915;52.046;4.854;2022-12-24T11:00:50;21.42;;;2.45;;
69678;SDS011;56915;52.046;4.854;2022-12-24T11:03:29;18.83;;;2.28;;
69678;SDS011;56915;52.046;4.854;2022-12-24T11:06:19;18.10;;;2.13;;
69678;SDS011;56915;52.046;4.854;2022-12-24T11:08:47;14.75;;;1.90;;
69678;SDS011;56915;52.046;4.854;2022-12-24T11:11:15;18.93;;;2.20;;
69678;SDS011;56915;52.046;4.854;2022-12-24T11:18:56;14.20;;;1.67;;
69678;SDS011;56915;52.046;4.854;2022-12-24T11:21:25;19.80;;;2.50;;
69678;SDS011;56915;52.046;4.854;2022-12-24T11:23:59;22.53;;;2.07;;
69678;SDS011;56915;52.046;4.854;2022-12-24T11:29:11;12.45;;;1.58;;
69678;SDS011;56915;52.046;4.854;2022-12-24T11:31:52;18.08;;;2.20;;
69678;SDS011;56915;52.046;4.854;2022-12-24T11:35:04;20.17;;;1.65;;
69678;SDS011;56915;52.046;4.854;2022-12-24T11:37:32;19.47;;;2.43;;
69678;SDS011;56915;52.046;4.854;2022-12-24T11:39:59;15.32;;;2.15;;
69678;SDS011;56915;52.046;4.854;2022-12-24T11:42:31;11.43;;;1.50;;
69678;SDS011;56915;52.046;4.854;2022-12-24T11:45:01;8.90;;;1.77;;
69678;SDS011;56915;52.046;4.854;2022-12-24T11:47:34;18.08;;;2.15;;
69678;SDS011;56915;52.046;4.854;2022-12-24T11:50:37;11.63;;;1.80;;
69678;SDS011;56915;52.046;4.854;2022-12-24T11:53:19;17.77;;;1.75;;
69678;SDS011;56915;52.046;4.854;2022-12-24T11:55:54;19.35;;;2.10;;
69678;SDS011;56915;52.046;4.854;2022-12-24T12:01:41;14.48;;;1.80;;
69678;SDS011;56915;52.046;4.854;2022-12-24T12:04:24;11.50;;;1.67;;
69678;SDS011;56915;52.046;4.854;2022-12-24T12:06:59;17.92;;;2.13;;
69678;SDS011;56915;52.046;4.854;2022-12-24T12:09:41;16.35;;;2.00;;
69678;SDS011;56915;52.046;4.854;2022-12-24T12:12:14;17.05;;;2.05;;
69678;SDS011;56915;52.046;4.854;2022-12-24T12:14:51;16.05;;;1.90;;
69678;SDS011;56915;52.046;4.854;2022-12-24T12:20:11;16.85;;;2.08;;
69678;SDS011;56915;52.046;4.854;2022-12-24T12:22:46;14.45;;;1.50;;
69678;SDS011;56915;52.046;4.854;2022-12-24T12:28:24;11.27;;;2.03;;
69678;SDS011;56915;52.046;4.854;2022-12-24T12:31:04;12.83;;;1.60;;
69678;SDS011;56915;52.046;4.854;2022-12-24T12:33:46;19.20;;;2.00;;
69678;SDS011;56915;52.046;4.854;2022-12-24T12:36:14;18.90;;;2.42;;
69678;SDS011;56915;52.046;4.854;2022-12-24T12:38:46;15.05;;;1.85;;
69678;SDS011;56915;52.046;4.854;2022-12-24T12:49:25;9.82;;;1.58;;
69678;SDS011;56915;52.046;4.854;2022-12-24T12:57:36;11.33;;;1.57;;
69678;SDS011;56915;52.046;4.854;2022-12-24T13:00:06;18.67;;;1.60;;
69678;SDS011;56915;52.046;4.854;2022-12-24T13:02:56;12.27;;;1.65;;
69678;SDS011;56915;52.046;4.854;2022-12-24T13:11:27;14.53;;;2.13;;
69678;SDS011;56915;52.046;4.854;2022-12-24T13:14:29;17.90;;;3.17;;
69678;SDS011;56915;52.046;4.854;2022-12-24T13:22:31;14.70;;;2.42;;
69678;SDS011;56915;52.046;4.854;2022-12-24T13:24:57;18.93;;;2.70;;
69678;SDS011;56915;52.046;4.854;2022-12-24T13:27:28;15.60;;;2.97;;
69678;SDS011;56915;52.046;4.854;2022-12-24T13:29:58;19.80;;;3.03;;
69678;SDS011;56915;52.046;4.854;2022-12-24T13:32:54;20.08;;;2.42;;
69678;SDS011;56915;52.046;4.854;2022-12-24T13:37:48;18.20;;;3.47;;
69678;SDS011;56915;52.046;4.854;2022-12-24T13:40:21;17.88;;;2.65;;
69678;SDS011;56915;52.046;4.854;2022-12-24T13:53:19;21.88;;;2.95;;
69678;SDS011;56915;52.046;4.854;2022-12-24T13:55:55;19.63;;;3.25;;
69678;SDS011;56915;52.046;4.854;2022-12-24T13:58:26;19.38;;;3.50;;
69678;SDS011;56915;52.046;4.854;2022-12-24T14:04:01;25.23;;;3.10;;
69678;SDS011;56915;52.046;4.854;2022-12-24T14:06:31;21.58;;;2.70;;
69678;SDS011;56915;52.046;4.854;2022-12-24T14:09:05;24.98;;;2.38;;
69678;SDS011;56915;52.046;4.854;2022-12-24T14:14:30;18.38;;;2.20;;
69678;SDS011;56915;52.046;4.854;2022-12-24T14:16:58;20.27;;;2.07;;
69678;SDS011;56915;52.046;4.854;2022-12-24T14:19:28;15.98;;;2.65;;
69678;SDS011;56915;52.046;4.854;2022-12-24T14:24:52;20.15;;;2.30;;
69678;SDS011;56915;52.046;4.854;2022-12-24T14:32:53;24.65;;;2.67;;
69678;SDS011;56915;52.046;4.854;2022-12-24T14:35:23;18.33;;;2.85;;
69678;SDS011;56915;52.046;4.854;2022-12-24T14:37:59;19.48;;;2.63;;
69678;SDS011;56915;52.046;4.854;2022-12-24T14:40:30;22.10;;;2.65;;
69678;SDS011;56915;52.046;4.854;2022-12-24T14:43:02;22.53;;;2.70;;
69678;SDS011;56915;52.046;4.854;2022-12-24T14:48:54;27.48;;;2.55;;
69678;SDS011;56915;52.046;4.854;2022-12-24T14:51:40;18.95;;;2.95;;
69678;SDS011;56915;52.046;4.854;2022-12-24T14:54:22;21.75;;;2.88;;
69678;SDS011;56915;52.046;4.854;2022-12-24T15:00:19;16.45;;;2.47;;
69678;SDS011;56915;52.046;4.854;2022-12-24T15:05:16;27.90;;;2.75;;
69678;SDS011;56915;52.046;4.854;2022-12-24T15:07:46;21.17;;;2.20;;
69678;SDS011;56915;52.046;4.854;2022-12-24T15:12:56;23.10;;;3.00;;
69678;SDS011;56915;52.046;4.854;2022-12-24T15:15:27;21.65;;;2.70;;
69678;SDS011;56915;52.046;4.854;2022-12-24T15:17:54;18.98;;;2.38;;
69678;SDS011;56915;52.046;4.854;2022-12-24T15:20:24;23.60;;;2.90;;
69678;SDS011;56915;52.046;4.854;2022-12-24T15:22:53;28.00;;;3.57;;
69678;SDS011;56915;52.046;4.854;2022-12-24T15:27:50;19.38;;;3.20;;
69678;SDS011;56915;52.046;4.854;2022-12-24T15:30:19;20.48;;;2.88;;
69678;SDS011;56915;52.046;4.854;2022-12-24T15:32:55;31.42;;;3.00;;
69678;SDS011;56915;52.046;4.854;2022-12-24T15:38:24;29.40;;;3.90;;
69678;SDS011;56915;52.046;4.854;2022-12-24T15:40:52;29.08;;;3.90;;
69678;SDS011;56915;52.046;4.854;2022-12-24T15:43:20;25.23;;;5.57;;
69678;SDS011;56915;52.046;4.854;2022-12-24T15:45:47;28.67;;;5.40;;
69678;SDS011;56915;52.046;4.854;2022-12-24T15:48:33;26.27;;;5.10;;
69678;SDS011;56915;52.046;4.854;2022-12-24T15:51:03;29.25;;;4.35;;
69678;SDS011;56915;52.046;4.854;2022-12-24T15:53:35;26.10;;;3.63;;
69678;SDS011;56915;52.046;4.854;2022-12-24T15:56:26;25.98;;;4.50;;
69678;SDS011;56915;52.046;4.854;2022-12-24T15:59:18;25.13;;;3.65;;
69678;SDS011;56915;52.046;4.854;2022-12-24T16:10:46;29.13;;;3.83;;
69678;SDS011;56915;52.046;4.854;2022-12-24T16:13:42;22.70;;;2.65;;
69678;SDS011;56915;52.046;4.854;2022-12-24T16:16:37;29.67;;;2.70;;
69678;SDS011;56915;52.046;4.854;2022-12-24T16:19:19;25.10;;;2.58;;
69678;SDS011;56915;52.046;4.854;2022-12-24T16:22:04;30.00;;;3.17;;
69678;SDS011;56915;52.046;4.854;2022-12-24T16:24:50;30.33;;;3.45;;
69678;SDS011;56915;52.046;4.854;2022-12-24T16:27:20;31.67;;;3.00;;
69678;SDS011;56915;52.046;4.854;2022-12-24T16:29:48;30.27;;;3.20;;
69678;SDS011;56915;52.046;4.854;2022-12-24T16:32:23;29.33;;;3.22;;
69678;SDS011;56915;52.046;4.854;2022-12-24T16:35:01;28.13;;;4.00;;
69678;SDS011;56915;52.046;4.854;2022-12-24T16:37:29;33.08;;;3.70;;
69678;SDS011;56915;52.046;4.854;2022-12-24T16:39:56;29.98;;;3.22;;
69678;SDS011;56915;52.046;4.854;2022-12-24T16:42:24;33.17;;;3.40;;
69678;SDS011;56915;52.046;4.854;2022-12-24T16:45:10;29.33;;;3.78;;
69678;SDS011;56915;52.046;4.854;2022-12-24T16:47:36;29.13;;;3.70;;
69678;SDS011;56915;52.046;4.854;2022-12-24T16:50:10;34.30;;;4.82;;
69678;SDS011;56915;52.046;4.854;2022-12-24T16:52:41;38.88;;;4.95;;
69678;SDS011;56915;52.046;4.854;2022-12-24T16:55:11;26.00;;;4.53;;
69678;SDS011;56915;52.046;4.854;2022-12-24T16:57:39;28.98;;;5.03;;
69678;SDS011;56915;52.046;4.854;2022-12-24T17:00:17;35.92;;;5.57;;
69678;SDS011;56915;52.046;4.854;2022-12-24T17:02:46;34.42;;;5.57;;
69678;SDS011;56915;52.046;4.854;2022-12-24T17:05:14;38.08;;;5.85;;
69678;SDS011;56915;52.046;4.854;2022-12-24T17:07:41;46.43;;;9.17;;
69678;SDS011;56915;52.046;4.854;2022-12-24T17:10:10;46.35;;;10.38;;
69678;SDS011;56915;52.046;4.854;2022-12-24T17:12:39;38.42;;;6.03;;
69678;SDS011;56915;52.046;4.854;2022-12-24T17:15:06;29.00;;;5.20;;
69678;SDS011;56915;52.046;4.854;2022-12-24T17:17:33;37.75;;;5.10;;
69678;SDS011;56915;52.046;4.854;2022-12-24T17:20:00;34.40;;;5.07;;
69678;SDS011;56915;52.046;4.854;2022-12-24T17:22:30;33.42;;;5.20;;